sensor_id;sensor_type;location;lat;lon;timestamp;temperature;humidity
39931;DHT22;26635;-35.248;149.138;2022-07-31T00:11:58;4.40;89.50
39931;DHT22;26635;-35.248;149.138;2022-07-31T00:14:32;4.60;88.80
39931;DHT22;26635;-35.248;149.138;2022-07-31T00:17:10;4.80;88.60
39931;DHT22;26635;-35.248;149.138;2022-07-31T00:19:46;4.90;88.00
39931;DHT22;26635;-35.248;149.138;2022-07-31T00:22:17;5.10;87.70
39931;DHT22;26635;-35.248;149.138;2022-07-31T00:24:49;5.20;87.40
39931;DHT22;26635;-35.248;149.138;2022-07-31T00:27:20;5.30;86.80
39931;DHT22;26635;-35.248;149.138;2022-07-31T00:29:51;5.50;87.70
39931;DHT22;26635;-35.248;149.138;2022-07-31T00:32:24;5.60;87.10
39931;DHT22;26635;-35.248;149.138;2022-07-31T00:34:55;5.80;87.10
39931;DHT22;26635;-35.248;149.138;2022-07-31T00:37:25;5.90;86.50
39931;DHT22;26635;-35.248;149.138;2022-07-31T00:39:56;6.10;86.00
39931;DHT22;26635;-35.248;149.138;2022-07-31T00:42:29;6.20;86.50
39931;DHT22;26635;-35.248;149.138;2022-07-31T00:45:00;6.40;86.00
39931;DHT22;26635;-35.248;149.138;2022-07-31T00:47:32;6.50;86.30
39931;DHT22;26635;-35.248;149.138;2022-07-31T00:50:03;6.70;85.60
39931;DHT22;26635;-35.248;149.138;2022-07-31T00:52:34;6.90;84.80
39931;DHT22;26635;-35.248;149.138;2022-07-31T00:55:05;7.10;84.20
39931;DHT22;26635;-35.248;149.138;2022-07-31T00:57:35;7.20;83.00
39931;DHT22;26635;-35.248;149.138;2022-07-31T01:00:11;7.40;83.40
39931;DHT22;26635;-35.248;149.138;2022-07-31T01:02:43;7.60;83.10
39931;DHT22;26635;-35.248;149.138;2022-07-31T01:05:14;7.70;81.80
39931;DHT22;26635;-35.248;149.138;2022-07-31T01:07:47;7.80;82.00
39931;DHT22;26635;-35.248;149.138;2022-07-31T01:10:56;7.90;81.40
39931;DHT22;26635;-35.248;149.138;2022-07-31T01:16:14;8.00;80.70
39931;DHT22;26635;-35.248;149.138;2022-07-31T01:18:49;8.00;81.00
39931;DHT22;26635;-35.248;149.138;2022-07-31T01:21:32;8.10;80.70
39931;DHT22;26635;-35.248;149.138;2022-07-31T01:27:20;8.40;79.90
39931;DHT22;26635;-35.248;149.138;2022-07-31T01:29:58;8.50;78.60
39931;DHT22;26635;-35.248;149.138;2022-07-31T01:32:45;8.70;79.20
39931;DHT22;26635;-35.248;149.138;2022-07-31T01:35:23;8.70;78.20
39931;DHT22;26635;-35.248;149.138;2022-07-31T01:40:56;8.90;77.50
39931;DHT22;26635;-35.248;149.138;2022-07-31T01:43:40;9.00;78.50
39931;DHT22;26635;-35.248;149.138;2022-07-31T01:46:13;9.10;78.60
39931;DHT22;26635;-35.248;149.138;2022-07-31T01:48:46;9.10;78.80
39931;DHT22;26635;-35.248;149.138;2022-07-31T01:51:19;9.20;78.70
39931;DHT22;26635;-35.248;149.138;2022-07-31T01:53:53;9.10;78.00
39931;DHT22;26635;-35.248;149.138;2022-07-31T01:56:26;9.10;78.60
39931;DHT22;26635;-35.248;149.138;2022-07-31T01:58:58;9.10;78.80
39931;DHT22;26635;-35.248;149.138;2022-07-31T02:01:30;9.10;79.40
39931;DHT22;26635;-35.248;149.138;2022-07-31T02:04:02;9.20;78.80
39931;DHT22;26635;-35.248;149.138;2022-07-31T02:06:37;9.20;78.80
39931;DHT22;26635;-35.248;149.138;2022-07-31T02:09:09;9.30;79.10
39931;DHT22;26635;-35.248;149.138;2022-07-31T02:11:40;9.30;78.90
39931;DHT22;26635;-35.248;149.138;2022-07-31T02:14:22;9.30;79.30
39931;DHT22;26635;-35.248;149.138;2022-07-31T02:16:54;9.30;78.70
39931;DHT22;26635;-35.248;149.138;2022-07-31T02:19:25;9.30;79.80
39931;DHT22;26635;-35.248;149.138;2022-07-31T02:21:58;9.30;79.30
39931;DHT22;26635;-35.248;149.138;2022-07-31T02:24:30;9.40;79.60
39931;DHT22;26635;-35.248;149.138;2022-07-31T02:27:02;9.40;80.10
39931;DHT22;26635;-35.248;149.138;2022-07-31T02:29:54;9.40;79.60
39931;DHT22;26635;-35.248;149.138;2022-07-31T02:32:28;9.50;79.50
39931;DHT22;26635;-35.248;149.138;2022-07-31T02:35:02;9.60;79.20
39931;DHT22;26635;-35.248;149.138;2022-07-31T02:37:39;9.60;79.00
39931;DHT22;26635;-35.248;149.138;2022-07-31T02:40:13;9.70;78.80
39931;DHT22;26635;-35.248;149.138;2022-07-31T02:42:45;9.80;79.00
39931;DHT22;26635;-35.248;149.138;2022-07-31T02:45:16;9.80;78.60
39931;DHT22;26635;-35.248;149.138;2022-07-31T02:47:48;9.80;79.40
39931;DHT22;26635;-35.248;149.138;2022-07-31T02:50:19;9.90;80.70
39931;DHT22;26635;-35.248;149.138;2022-07-31T02:52:53;9.80;80.40
39931;DHT22;26635;-35.248;149.138;2022-07-31T02:55:30;9.80;82.90
39931;DHT22;26635;-35.248;149.138;2022-07-31T02:58:01;9.80;84.30
39931;DHT22;26635;-35.248;149.138;2022-07-31T03:00:37;9.80;85.60
39931;DHT22;26635;-35.248;149.138;2022-07-31T03:03:12;9.70;84.60
39931;DHT22;26635;-35.248;149.138;2022-07-31T03:05:47;9.60;85.50
39931;DHT22;26635;-35.248;149.138;2022-07-31T03:08:21;9.50;84.90
39931;DHT22;26635;-35.248;149.138;2022-07-31T03:11:01;9.50;87.30
39931;DHT22;26635;-35.248;149.138;2022-07-31T03:13:36;9.40;87.30
39931;DHT22;26635;-35.248;149.138;2022-07-31T03:16:10;9.40;87.50
39931;DHT22;26635;-35.248;149.138;2022-07-31T03:18:44;9.30;88.60
39931;DHT22;26635;-35.248;149.138;2022-07-31T03:21:17;9.30;88.80
39931;DHT22;26635;-35.248;149.138;2022-07-31T03:23:49;9.30;90.00
39931;DHT22;26635;-35.248;149.138;2022-07-31T03:26:19;9.30;89.70
39931;DHT22;26635;-35.248;149.138;2022-07-31T03:28:53;9.30;90.40
39931;DHT22;26635;-35.248;149.138;2022-07-31T03:31:24;9.30;90.70
39931;DHT22;26635;-35.248;149.138;2022-07-31T03:33:56;9.30;90.50
39931;DHT22;26635;-35.248;149.138;2022-07-31T03:36:40;9.20;90.70
39931;DHT22;26635;-35.248;149.138;2022-07-31T03:39:11;9.20;90.90
39931;DHT22;26635;-35.248;149.138;2022-07-31T03:41:43;9.20;91.60
39931;DHT22;26635;-35.248;149.138;2022-07-31T03:44:17;9.20;91.60
39931;DHT22;26635;-35.248;149.138;2022-07-31T03:46:51;9.20;92.00
39931;DHT22;26635;-35.248;149.138;2022-07-31T03:49:24;9.10;91.80
39931;DHT22;26635;-35.248;149.138;2022-07-31T03:51:56;9.10;91.70
39931;DHT22;26635;-35.248;149.138;2022-07-31T03:54:28;9.10;92.10
39931;DHT22;26635;-35.248;149.138;2022-07-31T03:57:00;9.10;92.40
39931;DHT22;26635;-35.248;149.138;2022-07-31T03:59:33;9.00;92.10
39931;DHT22;26635;-35.248;149.138;2022-07-31T04:02:15;9.00;92.70
39931;DHT22;26635;-35.248;149.138;2022-07-31T04:04:49;9.00;92.70
39931;DHT22;26635;-35.248;149.138;2022-07-31T04:07:20;9.00;92.90
39931;DHT22;26635;-35.248;149.138;2022-07-31T04:09:51;8.90;93.00
39931;DHT22;26635;-35.248;149.138;2022-07-31T04:12:24;8.90;93.40
39931;DHT22;26635;-35.248;149.138;2022-07-31T04:14:55;8.80;93.30
39931;DHT22;26635;-35.248;149.138;2022-07-31T04:17:26;8.80;93.70
39931;DHT22;26635;-35.248;149.138;2022-07-31T04:20:01;8.70;93.80
39931;DHT22;26635;-35.248;149.138;2022-07-31T04:22:32;8.70;94.20
39931;DHT22;26635;-35.248;149.138;2022-07-31T04:25:04;8.60;94.30
39931;DHT22;26635;-35.248;149.138;2022-07-31T04:27:35;8.70;94.30
39931;DHT22;26635;-35.248;149.138;2022-07-31T04:30:15;8.70;94.70
39931;DHT22;26635;-35.248;149.138;2022-07-31T04:32:46;8.60;94.60
39931;DHT22;26635;-35.248;149.138;2022-07-31T04:35:16;8.60;95.10
39931;DHT22;26635;-35.248;149.138;2022-07-31T04:37:47;8.70;95.10
39931;DHT22;26635;-35.248;149.138;2022-07-31T04:40:20;8.60;95.20
39931;DHT22;26635;-35.248;149.138;2022-07-31T04:42:50;8.70;95.60
39931;DHT22;26635;-35.248;149.138;2022-07-31T04:45:21;8.70;95.80
39931;DHT22;26635;-35.248;149.138;2022-07-31T04:47:52;8.80;95.60
39931;DHT22;26635;-35.248;149.138;2022-07-31T04:50:24;8.80;95.60
39931;DHT22;26635;-35.248;149.138;2022-07-31T04:52:58;8.80;95.70
39931;DHT22;26635;-35.248;149.138;2022-07-31T04:55:30;8.80;95.80
39931;DHT22;26635;-35.248;149.138;2022-07-31T04:58:02;8.80;95.80
39931;DHT22;26635;-35.248;149.138;2022-07-31T05:00:33;8.80;95.70
39931;DHT22;26635;-35.248;149.138;2022-07-31T05:03:05;8.90;96.00
39931;DHT22;26635;-35.248;149.138;2022-07-31T05:05:38;8.90;96.00
39931;DHT22;26635;-35.248;149.138;2022-07-31T05:08:12;9.00;95.80
39931;DHT22;26635;-35.248;149.138;2022-07-31T05:10:48;9.00;95.80
39931;DHT22;26635;-35.248;149.138;2022-07-31T05:13:38;9.00;95.80
39931;DHT22;26635;-35.248;149.138;2022-07-31T05:16:12;9.00;96.10
39931;DHT22;26635;-35.248;149.138;2022-07-31T05:18:43;9.00;95.80
39931;DHT22;26635;-35.248;149.138;2022-07-31T05:21:15;9.00;96.00
39931;DHT22;26635;-35.248;149.138;2022-07-31T05:23:48;9.00;96.10
39931;DHT22;26635;-35.248;149.138;2022-07-31T05:26:19;8.90;96.10
39931;DHT22;26635;-35.248;149.138;2022-07-31T05:28:51;8.90;96.20
39931;DHT22;26635;-35.248;149.138;2022-07-31T05:31:25;8.90;96.20
39931;DHT22;26635;-35.248;149.138;2022-07-31T05:33:57;8.90;96.60
39931;DHT22;26635;-35.248;149.138;2022-07-31T05:36:29;8.80;96.60
39931;DHT22;26635;-35.248;149.138;2022-07-31T05:38:59;8.80;96.80
39931;DHT22;26635;-35.248;149.138;2022-07-31T05:41:30;8.80;96.40
39931;DHT22;26635;-35.248;149.138;2022-07-31T05:44:05;8.80;96.70
39931;DHT22;26635;-35.248;149.138;2022-07-31T05:46:37;8.80;96.80
39931;DHT22;26635;-35.248;149.138;2022-07-31T05:49:11;8.80;96.90
39931;DHT22;26635;-35.248;149.138;2022-07-31T05:51:45;8.70;96.90
39931;DHT22;26635;-35.248;149.138;2022-07-31T05:54:18;8.70;97.10
39931;DHT22;26635;-35.248;149.138;2022-07-31T05:56:49;8.80;97.20
39931;DHT22;26635;-35.248;149.138;2022-07-31T05:59:20;8.70;97.10
39931;DHT22;26635;-35.248;149.138;2022-07-31T06:01:51;8.70;97.20
39931;DHT22;26635;-35.248;149.138;2022-07-31T06:04:23;8.70;97.20
39931;DHT22;26635;-35.248;149.138;2022-07-31T06:06:57;8.70;97.00
39931;DHT22;26635;-35.248;149.138;2022-07-31T06:09:29;8.70;97.20
39931;DHT22;26635;-35.248;149.138;2022-07-31T06:12:00;8.70;97.20
39931;DHT22;26635;-35.248;149.138;2022-07-31T06:14:31;8.70;97.20
39931;DHT22;26635;-35.248;149.138;2022-07-31T06:17:06;8.70;97.30
39931;DHT22;26635;-35.248;149.138;2022-07-31T06:19:38;8.70;97.70
39931;DHT22;26635;-35.248;149.138;2022-07-31T06:22:12;8.70;97.40
39931;DHT22;26635;-35.248;149.138;2022-07-31T06:24:45;8.70;97.30
39931;DHT22;26635;-35.248;149.138;2022-07-31T06:27:15;8.70;97.40
39931;DHT22;26635;-35.248;149.138;2022-07-31T06:30:01;8.70;97.50
39931;DHT22;26635;-35.248;149.138;2022-07-31T06:32:33;8.60;97.50
39931;DHT22;26635;-35.248;149.138;2022-07-31T06:35:05;8.60;97.60
39931;DHT22;26635;-35.248;149.138;2022-07-31T06:37:38;8.60;97.60
39931;DHT22;26635;-35.248;149.138;2022-07-31T06:40:11;8.70;97.60
39931;DHT22;26635;-35.248;149.138;2022-07-31T06:42:44;8.60;97.70
39931;DHT22;26635;-35.248;149.138;2022-07-31T06:45:15;8.60;97.80
39931;DHT22;26635;-35.248;149.138;2022-07-31T06:48:06;8.60;97.80
39931;DHT22;26635;-35.248;149.138;2022-07-31T06:50:38;8.70;97.80
39931;DHT22;26635;-35.248;149.138;2022-07-31T06:53:09;8.60;97.80
39931;DHT22;26635;-35.248;149.138;2022-07-31T06:55:42;8.60;97.90
39931;DHT22;26635;-35.248;149.138;2022-07-31T06:58:15;8.60;98.00
39931;DHT22;26635;-35.248;149.138;2022-07-31T07:00:47;8.60;98.10
39931;DHT22;26635;-35.248;149.138;2022-07-31T07:03:19;8.50;98.10
39931;DHT22;26635;-35.248;149.138;2022-07-31T07:05:51;8.50;98.10
39931;DHT22;26635;-35.248;149.138;2022-07-31T07:08:26;8.50;98.20
39931;DHT22;26635;-35.248;149.138;2022-07-31T07:10:56;8.50;98.30
39931;DHT22;26635;-35.248;149.138;2022-07-31T07:13:27;8.50;98.20
39931;DHT22;26635;-35.248;149.138;2022-07-31T07:16:13;8.50;98.10
39931;DHT22;26635;-35.248;149.138;2022-07-31T07:18:44;8.50;98.10
39931;DHT22;26635;-35.248;149.138;2022-07-31T07:21:14;8.40;98.00
39931;DHT22;26635;-35.248;149.138;2022-07-31T07:23:45;8.40;98.10
39931;DHT22;26635;-35.248;149.138;2022-07-31T07:26:16;8.40;98.10
39931;DHT22;26635;-35.248;149.138;2022-07-31T07:28:49;8.30;98.00
39931;DHT22;26635;-35.248;149.138;2022-07-31T07:31:19;8.30;98.10
39931;DHT22;26635;-35.248;149.138;2022-07-31T07:33:51;8.30;98.10
39931;DHT22;26635;-35.248;149.138;2022-07-31T07:36:22;8.20;98.00
39931;DHT22;26635;-35.248;149.138;2022-07-31T07:38:54;8.20;97.90
39931;DHT22;26635;-35.248;149.138;2022-07-31T07:41:25;8.20;98.10
39931;DHT22;26635;-35.248;149.138;2022-07-31T07:43:55;8.10;98.10
39931;DHT22;26635;-35.248;149.138;2022-07-31T07:46:26;8.10;98.10
39931;DHT22;26635;-35.248;149.138;2022-07-31T07:48:56;8.10;98.20
39931;DHT22;26635;-35.248;149.138;2022-07-31T07:51:27;8.10;98.20
39931;DHT22;26635;-35.248;149.138;2022-07-31T07:53:57;8.00;98.10
39931;DHT22;26635;-35.248;149.138;2022-07-31T07:56:28;8.00;98.10
39931;DHT22;26635;-35.248;149.138;2022-07-31T07:58:59;8.00;98.10
39931;DHT22;26635;-35.248;149.138;2022-07-31T08:01:29;8.00;97.90
39931;DHT22;26635;-35.248;149.138;2022-07-31T08:03:59;7.90;98.00
39931;DHT22;26635;-35.248;149.138;2022-07-31T08:06:30;7.90;98.00
39931;DHT22;26635;-35.248;149.138;2022-07-31T08:09:01;7.90;97.90
39931;DHT22;26635;-35.248;149.138;2022-07-31T08:11:31;7.90;97.90
39931;DHT22;26635;-35.248;149.138;2022-07-31T08:14:01;7.80;97.80
39931;DHT22;26635;-35.248;149.138;2022-07-31T08:16:32;7.80;97.90
39931;DHT22;26635;-35.248;149.138;2022-07-31T08:19:04;7.80;97.90
39931;DHT22;26635;-35.248;149.138;2022-07-31T08:21:35;7.70;98.00
39931;DHT22;26635;-35.248;149.138;2022-07-31T08:24:06;7.80;98.00
39931;DHT22;26635;-35.248;149.138;2022-07-31T08:26:37;7.70;97.80
39931;DHT22;26635;-35.248;149.138;2022-07-31T08:29:28;7.70;98.00
39931;DHT22;26635;-35.248;149.138;2022-07-31T08:32:04;7.70;98.00
39931;DHT22;26635;-35.248;149.138;2022-07-31T08:34:34;7.70;98.10
39931;DHT22;26635;-35.248;149.138;2022-07-31T08:37:10;7.80;98.30
39931;DHT22;26635;-35.248;149.138;2022-07-31T08:40:04;7.80;98.30
39931;DHT22;26635;-35.248;149.138;2022-07-31T08:42:37;7.80;98.30
39931;DHT22;26635;-35.248;149.138;2022-07-31T08:45:08;7.80;98.20
39931;DHT22;26635;-35.248;149.138;2022-07-31T08:47:41;7.80;98.20
39931;DHT22;26635;-35.248;149.138;2022-07-31T08:50:14;7.70;98.00
39931;DHT22;26635;-35.248;149.138;2022-07-31T08:52:46;7.70;98.10
39931;DHT22;26635;-35.248;149.138;2022-07-31T08:55:21;7.80;98.10
39931;DHT22;26635;-35.248;149.138;2022-07-31T08:58:12;7.70;98.10
39931;DHT22;26635;-35.248;149.138;2022-07-31T09:00:42;7.70;98.00
39931;DHT22;26635;-35.248;149.138;2022-07-31T09:03:12;7.70;98.00
39931;DHT22;26635;-35.248;149.138;2022-07-31T09:05:43;7.60;97.70
39931;DHT22;26635;-35.248;149.138;2022-07-31T09:08:13;7.60;97.80
39931;DHT22;26635;-35.248;149.138;2022-07-31T09:10:47;7.50;97.80
39931;DHT22;26635;-35.248;149.138;2022-07-31T09:13:18;7.50;97.70
39931;DHT22;26635;-35.248;149.138;2022-07-31T09:15:48;7.50;97.90
39931;DHT22;26635;-35.248;149.138;2022-07-31T09:18:21;7.50;98.10
39931;DHT22;26635;-35.248;149.138;2022-07-31T09:20:58;7.40;98.10
39931;DHT22;26635;-35.248;149.138;2022-07-31T09:23:30;7.40;97.90
39931;DHT22;26635;-35.248;149.138;2022-07-31T09:26:06;7.40;97.80
39931;DHT22;26635;-35.248;149.138;2022-07-31T09:28:45;7.30;97.70
39931;DHT22;26635;-35.248;149.138;2022-07-31T09:31:18;7.20;97.70
39931;DHT22;26635;-35.248;149.138;2022-07-31T09:33:49;7.20;97.70
39931;DHT22;26635;-35.248;149.138;2022-07-31T09:36:22;7.10;97.40
39931;DHT22;26635;-35.248;149.138;2022-07-31T09:38:55;7.00;97.30
39931;DHT22;26635;-35.248;149.138;2022-07-31T09:41:31;7.00;97.40
39931;DHT22;26635;-35.248;149.138;2022-07-31T09:44:21;6.90;97.30
39931;DHT22;26635;-35.248;149.138;2022-07-31T09:46:53;6.80;97.10
39931;DHT22;26635;-35.248;149.138;2022-07-31T09:49:32;6.80;97.20
39931;DHT22;26635;-35.248;149.138;2022-07-31T09:52:02;6.70;97.10
39931;DHT22;26635;-35.248;149.138;2022-07-31T09:54:33;6.70;97.20
39931;DHT22;26635;-35.248;149.138;2022-07-31T09:57:11;6.60;97.20
39931;DHT22;26635;-35.248;149.138;2022-07-31T09:59:42;6.60;97.30
39931;DHT22;26635;-35.248;149.138;2022-07-31T10:02:14;6.50;97.70
39931;DHT22;26635;-35.248;149.138;2022-07-31T10:04:47;6.50;97.70
39931;DHT22;26635;-35.248;149.138;2022-07-31T10:07:19;6.50;97.50
39931;DHT22;26635;-35.248;149.138;2022-07-31T10:10:00;6.50;97.70
39931;DHT22;26635;-35.248;149.138;2022-07-31T10:12:33;6.50;97.70
39931;DHT22;26635;-35.248;149.138;2022-07-31T10:15:07;6.40;97.50
39931;DHT22;26635;-35.248;149.138;2022-07-31T10:17:42;6.40;97.50
39931;DHT22;26635;-35.248;149.138;2022-07-31T10:20:16;6.40;97.60
39931;DHT22;26635;-35.248;149.138;2022-07-31T10:23:09;6.30;97.80
39931;DHT22;26635;-35.248;149.138;2022-07-31T10:25:50;6.30;97.60
39931;DHT22;26635;-35.248;149.138;2022-07-31T10:28:22;6.20;97.90
39931;DHT22;26635;-35.248;149.138;2022-07-31T10:30:52;6.20;97.70
39931;DHT22;26635;-35.248;149.138;2022-07-31T10:33:23;6.20;97.70
39931;DHT22;26635;-35.248;149.138;2022-07-31T10:36:34;6.20;97.80
39931;DHT22;26635;-35.248;149.138;2022-07-31T10:41:59;6.10;97.80
39931;DHT22;26635;-35.248;149.138;2022-07-31T10:44:54;6.10;97.80
39931;DHT22;26635;-35.248;149.138;2022-07-31T10:47:24;6.10;97.80
39931;DHT22;26635;-35.248;149.138;2022-07-31T10:49:55;6.10;97.90
39931;DHT22;26635;-35.248;149.138;2022-07-31T10:52:36;6.10;98.00
39931;DHT22;26635;-35.248;149.138;2022-07-31T10:55:26;6.20;98.10
39931;DHT22;26635;-35.248;149.138;2022-07-31T10:58:10;6.20;98.20
39931;DHT22;26635;-35.248;149.138;2022-07-31T11:00:41;6.30;98.30
39931;DHT22;26635;-35.248;149.138;2022-07-31T11:03:20;6.30;98.20
39931;DHT22;26635;-35.248;149.138;2022-07-31T11:05:55;6.30;98.20
39931;DHT22;26635;-35.248;149.138;2022-07-31T11:08:47;6.30;98.20
39931;DHT22;26635;-35.248;149.138;2022-07-31T11:11:29;6.30;98.20
39931;DHT22;26635;-35.248;149.138;2022-07-31T11:14:00;6.40;98.20
39931;DHT22;26635;-35.248;149.138;2022-07-31T11:16:31;6.40;98.20
39931;DHT22;26635;-35.248;149.138;2022-07-31T11:19:04;6.40;98.30
39931;DHT22;26635;-35.248;149.138;2022-07-31T11:21:40;6.40;98.30
39931;DHT22;26635;-35.248;149.138;2022-07-31T11:24:14;6.40;98.30
39931;DHT22;26635;-35.248;149.138;2022-07-31T11:26:52;6.40;98.40
39931;DHT22;26635;-35.248;149.138;2022-07-31T11:29:37;6.50;98.40
39931;DHT22;26635;-35.248;149.138;2022-07-31T11:32:28;6.50;98.40
39931;DHT22;26635;-35.248;149.138;2022-07-31T11:34:58;6.50;98.20
39931;DHT22;26635;-35.248;149.138;2022-07-31T11:37:31;6.50;98.20
39931;DHT22;26635;-35.248;149.138;2022-07-31T11:40:13;6.50;98.30
39931;DHT22;26635;-35.248;149.138;2022-07-31T11:42:44;6.50;98.30
39931;DHT22;26635;-35.248;149.138;2022-07-31T11:45:47;6.50;98.20
39931;DHT22;26635;-35.248;149.138;2022-07-31T11:48:19;6.50;98.30
39931;DHT22;26635;-35.248;149.138;2022-07-31T11:50:54;6.50;98.20
39931;DHT22;26635;-35.248;149.138;2022-07-31T11:53:25;6.50;98.10
39931;DHT22;26635;-35.248;149.138;2022-07-31T11:55:59;6.50;98.30
39931;DHT22;26635;-35.248;149.138;2022-07-31T11:58:31;6.50;98.40
39931;DHT22;26635;-35.248;149.138;2022-07-31T12:01:03;6.50;98.40
39931;DHT22;26635;-35.248;149.138;2022-07-31T12:03:36;6.50;98.70
39931;DHT22;26635;-35.248;149.138;2022-07-31T12:06:08;6.50;98.80
39931;DHT22;26635;-35.248;149.138;2022-07-31T12:08:39;6.50;98.50
39931;DHT22;26635;-35.248;149.138;2022-07-31T12:11:10;6.50;98.30
39931;DHT22;26635;-35.248;149.138;2022-07-31T12:13:45;6.60;98.40
39931;DHT22;26635;-35.248;149.138;2022-07-31T12:16:17;6.60;98.40
39931;DHT22;26635;-35.248;149.138;2022-07-31T12:18:49;6.60;98.40
39931;DHT22;26635;-35.248;149.138;2022-07-31T12:21:28;6.60;98.60
39931;DHT22;26635;-35.248;149.138;2022-07-31T12:23:59;6.70;98.60
39931;DHT22;26635;-35.248;149.138;2022-07-31T12:26:32;6.70;98.40
39931;DHT22;26635;-35.248;149.138;2022-07-31T12:29:07;6.70;98.40
39931;DHT22;26635;-35.248;149.138;2022-07-31T12:31:48;6.70;98.50
39931;DHT22;26635;-35.248;149.138;2022-07-31T12:34:35;6.70;98.60
39931;DHT22;26635;-35.248;149.138;2022-07-31T12:37:14;6.70;98.70
39931;DHT22;26635;-35.248;149.138;2022-07-31T12:42:34;6.70;98.70
39931;DHT22;26635;-35.248;149.138;2022-07-31T12:45:09;6.80;98.80
39931;DHT22;26635;-35.248;149.138;2022-07-31T12:47:52;6.80;98.80
39931;DHT22;26635;-35.248;149.138;2022-07-31T12:50:25;6.80;98.80
39931;DHT22;26635;-35.248;149.138;2022-07-31T12:53:02;6.80;98.80
39931;DHT22;26635;-35.248;149.138;2022-07-31T12:55:33;6.80;98.80
39931;DHT22;26635;-35.248;149.138;2022-07-31T12:58:05;6.90;98.90
39931;DHT22;26635;-35.248;149.138;2022-07-31T13:00:37;6.90;98.90
39931;DHT22;26635;-35.248;149.138;2022-07-31T13:03:09;6.90;98.80
39931;DHT22;26635;-35.248;149.138;2022-07-31T13:05:39;6.90;98.80
39931;DHT22;26635;-35.248;149.138;2022-07-31T13:08:27;6.90;98.80
39931;DHT22;26635;-35.248;149.138;2022-07-31T13:11:00;7.00;98.80
39931;DHT22;26635;-35.248;149.138;2022-07-31T13:13:32;7.00;98.80
39931;DHT22;26635;-35.248;149.138;2022-07-31T13:16:04;7.00;98.80
39931;DHT22;26635;-35.248;149.138;2022-07-31T13:18:36;7.00;98.90
39931;DHT22;26635;-35.248;149.138;2022-07-31T13:21:08;7.00;98.90
39931;DHT22;26635;-35.248;149.138;2022-07-31T13:23:40;7.00;99.00
39931;DHT22;26635;-35.248;149.138;2022-07-31T13:26:12;7.00;99.10
39931;DHT22;26635;-35.248;149.138;2022-07-31T13:28:44;7.10;99.10
39931;DHT22;26635;-35.248;149.138;2022-07-31T13:31:16;7.00;99.10
39931;DHT22;26635;-35.248;149.138;2022-07-31T13:33:47;7.00;99.10
39931;DHT22;26635;-35.248;149.138;2022-07-31T13:36:19;7.10;99.20
39931;DHT22;26635;-35.248;149.138;2022-07-31T13:38:51;7.10;99.30
39931;DHT22;26635;-35.248;149.138;2022-07-31T13:41:22;7.10;99.30
39931;DHT22;26635;-35.248;149.138;2022-07-31T13:43:54;7.10;99.40
39931;DHT22;26635;-35.248;149.138;2022-07-31T13:46:28;7.20;99.40
39931;DHT22;26635;-35.248;149.138;2022-07-31T13:49:00;7.20;99.40
39931;DHT22;26635;-35.248;149.138;2022-07-31T13:51:33;7.20;99.80
39931;DHT22;26635;-35.248;149.138;2022-07-31T13:54:06;7.30;99.50
39931;DHT22;26635;-35.248;149.138;2022-07-31T13:56:36;7.30;99.50
39931;DHT22;26635;-35.248;149.138;2022-07-31T13:59:11;7.30;99.40
39931;DHT22;26635;-35.248;149.138;2022-07-31T14:01:43;7.30;99.60
39931;DHT22;26635;-35.248;149.138;2022-07-31T14:04:32;7.30;99.70
39931;DHT22;26635;-35.248;149.138;2022-07-31T14:07:06;7.30;99.80
39931;DHT22;26635;-35.248;149.138;2022-07-31T14:09:39;7.40;99.70
39931;DHT22;26635;-35.248;149.138;2022-07-31T14:12:21;7.40;99.70
39931;DHT22;26635;-35.248;149.138;2022-07-31T14:14:53;7.40;99.70
39931;DHT22;26635;-35.248;149.138;2022-07-31T14:17:25;7.40;99.80
39931;DHT22;26635;-35.248;149.138;2022-07-31T14:19:56;7.50;99.80
39931;DHT22;26635;-35.248;149.138;2022-07-31T14:22:29;7.50;99.80
39931;DHT22;26635;-35.248;149.138;2022-07-31T14:25:00;7.50;99.80
39931;DHT22;26635;-35.248;149.138;2022-07-31T14:27:32;7.50;99.70
39931;DHT22;26635;-35.248;149.138;2022-07-31T14:30:10;7.50;99.60
39931;DHT22;26635;-35.248;149.138;2022-07-31T14:32:47;7.50;99.70
39931;DHT22;26635;-35.248;149.138;2022-07-31T14:35:19;7.50;99.70
39931;DHT22;26635;-35.248;149.138;2022-07-31T14:37:51;7.50;99.70
39931;DHT22;26635;-35.248;149.138;2022-07-31T14:40:23;7.50;99.70
39931;DHT22;26635;-35.248;149.138;2022-07-31T14:42:56;7.50;99.60
39931;DHT22;26635;-35.248;149.138;2022-07-31T14:45:29;7.60;99.80
39931;DHT22;26635;-35.248;149.138;2022-07-31T14:48:18;7.60;99.60
39931;DHT22;26635;-35.248;149.138;2022-07-31T14:50:51;7.60;99.60
39931;DHT22;26635;-35.248;149.138;2022-07-31T14:53:23;7.60;99.60
39931;DHT22;26635;-35.248;149.138;2022-07-31T14:55:54;7.60;99.70
39931;DHT22;26635;-35.248;149.138;2022-07-31T14:58:31;7.70;99.80
39931;DHT22;26635;-35.248;149.138;2022-07-31T15:01:22;7.70;99.80
39931;DHT22;26635;-35.248;149.138;2022-07-31T15:03:58;7.70;99.90
39931;DHT22;26635;-35.248;149.138;2022-07-31T15:06:30;7.70;99.90
39931;DHT22;26635;-35.248;149.138;2022-07-31T15:09:22;7.80;99.90
39931;DHT22;26635;-35.248;149.138;2022-07-31T15:11:54;7.90;99.90
39931;DHT22;26635;-35.248;149.138;2022-07-31T15:14:29;8.00;99.90
39931;DHT22;26635;-35.248;149.138;2022-07-31T15:17:00;8.10;99.90
39931;DHT22;26635;-35.248;149.138;2022-07-31T15:19:33;8.20;99.90
39931;DHT22;26635;-35.248;149.138;2022-07-31T15:22:05;8.30;99.90
39931;DHT22;26635;-35.248;149.138;2022-07-31T15:24:45;8.30;99.90
39931;DHT22;26635;-35.248;149.138;2022-07-31T15:27:18;8.40;99.90
39931;DHT22;26635;-35.248;149.138;2022-07-31T15:29:55;8.40;99.90
39931;DHT22;26635;-35.248;149.138;2022-07-31T15:32:35;8.50;99.90
39931;DHT22;26635;-35.248;149.138;2022-07-31T15:35:10;8.50;99.90
39931;DHT22;26635;-35.248;149.138;2022-07-31T15:37:42;8.60;99.90
39931;DHT22;26635;-35.248;149.138;2022-07-31T15:40:14;8.60;99.90
39931;DHT22;26635;-35.248;149.138;2022-07-31T15:42:49;8.60;99.90
39931;DHT22;26635;-35.248;149.138;2022-07-31T15:45:22;8.70;99.90
39931;DHT22;26635;-35.248;149.138;2022-07-31T15:47:53;8.70;99.90
39931;DHT22;26635;-35.248;149.138;2022-07-31T15:50:26;8.70;99.90
39931;DHT22;26635;-35.248;149.138;2022-07-31T15:52:57;8.70;99.90
39931;DHT22;26635;-35.248;149.138;2022-07-31T15:55:29;8.70;99.90
39931;DHT22;26635;-35.248;149.138;2022-07-31T15:58:02;8.80;99.90
39931;DHT22;26635;-35.248;149.138;2022-07-31T16:00:35;8.80;99.90
39931;DHT22;26635;-35.248;149.138;2022-07-31T16:03:07;8.80;99.90
39931;DHT22;26635;-35.248;149.138;2022-07-31T16:05:44;8.80;99.90
39931;DHT22;26635;-35.248;149.138;2022-07-31T16:08:25;8.80;99.90
39931;DHT22;26635;-35.248;149.138;2022-07-31T16:11:02;8.80;99.90